sensor_id;sensor_type;location;lat;lon;timestamp;temperature;humidity
54006;DHT22;39919;38.160;-122.260;2022-07-29T00:02:32;24.70;59.30
54006;DHT22;39919;38.160;-122.260;2022-07-29T00:05:09;24.60;59.90
54006;DHT22;39919;38.160;-122.260;2022-07-29T00:08:02;24.50;59.80
54006;DHT22;39919;38.160;-122.260;2022-07-29T00:11:12;24.40;60.00
54006;DHT22;39919;38.160;-122.260;2022-07-29T00:13:51;24.30;60.60
54006;DHT22;39919;38.160;-122.260;2022-07-29T00:16:31;24.30;60.90
54006;DHT22;39919;38.160;-122.260;2022-07-29T00:19:09;24.20;61.20
54006;DHT22;39919;38.160;-122.260;2022-07-29T00:21:48;24.10;61.40
54006;DHT22;39919;38.160;-122.260;2022-07-29T00:33:14;23.80;62.80
54006;DHT22;39919;38.160;-122.260;2022-07-29T00:35:43;23.70;62.80
54006;DHT22;39919;38.160;-122.260;2022-07-29T00:38:12;23.60;62.70
54006;DHT22;39919;38.160;-122.260;2022-07-29T00:40:47;23.50;62.90
54006;DHT22;39919;38.160;-122.260;2022-07-29T00:48:34;23.30;63.60
54006;DHT22;39919;38.160;-122.260;2022-07-29T00:51:08;23.30;63.90
54006;DHT22;39919;38.160;-122.260;2022-07-29T00:53:45;23.20;64.00
54006;DHT22;39919;38.160;-122.260;2022-07-29T00:56:17;23.10;64.30
54006;DHT22;39919;38.160;-122.260;2022-07-29T00:58:50;23.10;64.60
54006;DHT22;39919;38.160;-122.260;2022-07-29T01:01:26;23.00;64.80
54006;DHT22;39919;38.160;-122.260;2022-07-29T01:04:16;23.00;65.00
54006;DHT22;39919;38.160;-122.260;2022-07-29T01:12:32;22.90;65.40
54006;DHT22;39919;38.160;-122.260;2022-07-29T01:17:43;22.90;65.70
54006;DHT22;39919;38.160;-122.260;2022-07-29T01:20:26;22.90;65.70
54006;DHT22;39919;38.160;-122.260;2022-07-29T01:23:13;22.80;65.70
54006;DHT22;39919;38.160;-122.260;2022-07-29T01:26:18;22.80;65.90
54006;DHT22;39919;38.160;-122.260;2022-07-29T01:29:14;22.80;66.40
54006;DHT22;39919;38.160;-122.260;2022-07-29T01:31:51;22.80;66.40
54006;DHT22;39919;38.160;-122.260;2022-07-29T01:44:48;22.60;66.80
54006;DHT22;39919;38.160;-122.260;2022-07-29T01:47:20;22.60;70.80
54006;DHT22;39919;38.160;-122.260;2022-07-29T01:49:51;22.50;71.20
54006;DHT22;39919;38.160;-122.260;2022-07-29T01:52:26;22.50;71.40
54006;DHT22;39919;38.160;-122.260;2022-07-29T01:54:58;22.40;71.80
54006;DHT22;39919;38.160;-122.260;2022-07-29T01:57:34;22.30;72.00
54006;DHT22;39919;38.160;-122.260;2022-07-29T02:00:10;22.20;72.40
54006;DHT22;39919;38.160;-122.260;2022-07-29T02:02:44;22.20;72.60
54006;DHT22;39919;38.160;-122.260;2022-07-29T02:05:15;22.20;72.80
54006;DHT22;39919;38.160;-122.260;2022-07-29T02:08:01;22.00;73.20
54006;DHT22;39919;38.160;-122.260;2022-07-29T02:10:45;21.90;74.30
54006;DHT22;39919;38.160;-122.260;2022-07-29T02:13:16;21.80;75.20
54006;DHT22;39919;38.160;-122.260;2022-07-29T02:19:07;21.70;76.70
54006;DHT22;39919;38.160;-122.260;2022-07-29T02:21:37;21.60;77.40
54006;DHT22;39919;38.160;-122.260;2022-07-29T02:26:42;21.40;76.80
54006;DHT22;39919;38.160;-122.260;2022-07-29T02:29:13;21.40;77.00
54006;DHT22;39919;38.160;-122.260;2022-07-29T02:31:45;21.40;77.10
54006;DHT22;39919;38.160;-122.260;2022-07-29T02:34:18;21.30;77.10
54006;DHT22;39919;38.160;-122.260;2022-07-29T02:36:49;21.20;77.30
54006;DHT22;39919;38.160;-122.260;2022-07-29T02:39:19;21.10;77.20
54006;DHT22;39919;38.160;-122.260;2022-07-29T02:41:50;21.00;73.90
54006;DHT22;39919;38.160;-122.260;2022-07-29T02:44:20;21.00;72.30
54006;DHT22;39919;38.160;-122.260;2022-07-29T02:46:52;20.90;72.40
54006;DHT22;39919;38.160;-122.260;2022-07-29T02:49:31;20.80;72.50
54006;DHT22;39919;38.160;-122.260;2022-07-29T02:52:08;20.70;72.70
54006;DHT22;39919;38.160;-122.260;2022-07-29T02:54:44;20.60;73.10
54006;DHT22;39919;38.160;-122.260;2022-07-29T02:57:21;20.70;74.00
54006;DHT22;39919;38.160;-122.260;2022-07-29T02:59:53;20.50;76.90
54006;DHT22;39919;38.160;-122.260;2022-07-29T03:02:33;20.50;73.80
54006;DHT22;39919;38.160;-122.260;2022-07-29T03:07:37;20.40;74.50
54006;DHT22;39919;38.160;-122.260;2022-07-29T03:10:07;20.30;75.30
54006;DHT22;39919;38.160;-122.260;2022-07-29T03:12:52;20.20;75.00
54006;DHT22;39919;38.160;-122.260;2022-07-29T03:15:24;20.10;75.20
54006;DHT22;39919;38.160;-122.260;2022-07-29T03:17:53;20.00;75.80
54006;DHT22;39919;38.160;-122.260;2022-07-29T03:20:26;20.00;76.00
54006;DHT22;39919;38.160;-122.260;2022-07-29T03:22:57;20.00;77.40
54006;DHT22;39919;38.160;-122.260;2022-07-29T03:25:27;19.80;76.30
54006;DHT22;39919;38.160;-122.260;2022-07-29T03:27:56;19.70;76.40
54006;DHT22;39919;38.160;-122.260;2022-07-29T03:30:25;19.70;76.80
54006;DHT22;39919;38.160;-122.260;2022-07-29T03:32:57;19.60;77.30
54006;DHT22;39919;38.160;-122.260;2022-07-29T03:35:28;19.50;77.20
54006;DHT22;39919;38.160;-122.260;2022-07-29T03:38:02;19.50;77.70
54006;DHT22;39919;38.160;-122.260;2022-07-29T03:40:33;19.40;78.10
54006;DHT22;39919;38.160;-122.260;2022-07-29T03:43:02;19.30;78.20
54006;DHT22;39919;38.160;-122.260;2022-07-29T03:45:33;19.30;78.70
54006;DHT22;39919;38.160;-122.260;2022-07-29T03:48:10;19.30;84.20
54006;DHT22;39919;38.160;-122.260;2022-07-29T03:50:46;19.20;90.10
54006;DHT22;39919;38.160;-122.260;2022-07-29T03:53:15;19.10;80.10
54006;DHT22;39919;38.160;-122.260;2022-07-29T03:55:50;19.00;79.70
54006;DHT22;39919;38.160;-122.260;2022-07-29T03:58:21;19.00;79.10
54006;DHT22;39919;38.160;-122.260;2022-07-29T04:00:55;19.00;78.40
54006;DHT22;39919;38.160;-122.260;2022-07-29T04:03:34;18.90;77.80
54006;DHT22;39919;38.160;-122.260;2022-07-29T04:06:05;18.90;77.60
54006;DHT22;39919;38.160;-122.260;2022-07-29T04:08:53;18.80;77.30
54006;DHT22;39919;38.160;-122.260;2022-07-29T04:11:22;18.80;77.20
54006;DHT22;39919;38.160;-122.260;2022-07-29T04:13:59;18.70;77.10
54006;DHT22;39919;38.160;-122.260;2022-07-29T04:16:28;18.70;77.20
54006;DHT22;39919;38.160;-122.260;2022-07-29T04:18:57;18.70;77.20
54006;DHT22;39919;38.160;-122.260;2022-07-29T04:21:31;18.70;77.40
54006;DHT22;39919;38.160;-122.260;2022-07-29T04:24:06;18.60;77.40
54006;DHT22;39919;38.160;-122.260;2022-07-29T04:26:35;18.60;77.80
54006;DHT22;39919;38.160;-122.260;2022-07-29T04:29:05;18.70;78.30
54006;DHT22;39919;38.160;-122.260;2022-07-29T04:31:37;18.70;79.20
54006;DHT22;39919;38.160;-122.260;2022-07-29T04:34:26;18.70;80.10
54006;DHT22;39919;38.160;-122.260;2022-07-29T04:36:57;18.70;80.80
54006;DHT22;39919;38.160;-122.260;2022-07-29T04:39:29;18.70;80.90
54006;DHT22;39919;38.160;-122.260;2022-07-29T04:42:08;18.70;81.10
54006;DHT22;39919;38.160;-122.260;2022-07-29T04:50:51;18.60;81.80
54006;DHT22;39919;38.160;-122.260;2022-07-29T04:53:25;18.50;81.50
54006;DHT22;39919;38.160;-122.260;2022-07-29T04:56:05;18.50;81.70
54006;DHT22;39919;38.160;-122.260;2022-07-29T04:59:10;18.50;81.60
54006;DHT22;39919;38.160;-122.260;2022-07-29T05:01:44;18.50;81.50
54006;DHT22;39919;38.160;-122.260;2022-07-29T05:04:16;18.40;81.00
54006;DHT22;39919;38.160;-122.260;2022-07-29T05:09:45;18.40;90.10
54006;DHT22;39919;38.160;-122.260;2022-07-29T05:12:14;18.50;90.00
54006;DHT22;39919;38.160;-122.260;2022-07-29T05:14:52;18.40;85.40
54006;DHT22;39919;38.160;-122.260;2022-07-29T05:17:26;18.50;87.00
54006;DHT22;39919;38.160;-122.260;2022-07-29T05:20:00;18.50;90.70
54006;DHT22;39919;38.160;-122.260;2022-07-29T05:22:29;18.40;90.80
54006;DHT22;39919;38.160;-122.260;2022-07-29T05:25:00;18.50;91.00
54006;DHT22;39919;38.160;-122.260;2022-07-29T05:27:36;18.50;91.40
54006;DHT22;39919;38.160;-122.260;2022-07-29T05:30:06;18.40;91.00
54006;DHT22;39919;38.160;-122.260;2022-07-29T05:32:35;18.40;90.70
54006;DHT22;39919;38.160;-122.260;2022-07-29T05:35:05;18.40;90.50
54006;DHT22;39919;38.160;-122.260;2022-07-29T05:37:35;18.40;90.30
54006;DHT22;39919;38.160;-122.260;2022-07-29T05:40:19;18.40;90.10
54006;DHT22;39919;38.160;-122.260;2022-07-29T05:44:25;18.50;90.50
54006;DHT22;39919;38.160;-122.260;2022-07-29T05:46:12;18.50;90.80
54006;DHT22;39919;38.160;-122.260;2022-07-29T05:48:42;18.50;91.20
54006;DHT22;39919;38.160;-122.260;2022-07-29T05:51:14;18.40;91.00
54006;DHT22;39919;38.160;-122.260;2022-07-29T05:53:45;18.50;91.40
54006;DHT22;39919;38.160;-122.260;2022-07-29T05:56:16;18.40;91.40
54006;DHT22;39919;38.160;-122.260;2022-07-29T05:58:45;18.40;91.30
54006;DHT22;39919;38.160;-122.260;2022-07-29T06:01:14;18.40;91.20
54006;DHT22;39919;38.160;-122.260;2022-07-29T06:06:09;18.30;91.00
54006;DHT22;39919;38.160;-122.260;2022-07-29T06:08:39;18.40;90.70
54006;DHT22;39919;38.160;-122.260;2022-07-29T06:11:08;18.30;90.50
54006;DHT22;39919;38.160;-122.260;2022-07-29T06:13:39;18.30;90.20
54006;DHT22;39919;38.160;-122.260;2022-07-29T06:16:10;18.30;90.00
54006;DHT22;39919;38.160;-122.260;2022-07-29T06:18:42;18.30;89.50
54006;DHT22;39919;38.160;-122.260;2022-07-29T06:21:13;18.30;89.20
54006;DHT22;39919;38.160;-122.260;2022-07-29T06:23:43;18.30;88.80
54006;DHT22;39919;38.160;-122.260;2022-07-29T06:26:12;18.30;88.20
54006;DHT22;39919;38.160;-122.260;2022-07-29T06:28:43;18.30;86.20
54006;DHT22;39919;38.160;-122.260;2022-07-29T06:31:13;18.30;86.80
54006;DHT22;39919;38.160;-122.260;2022-07-29T06:33:43;18.30;84.10
54006;DHT22;39919;38.160;-122.260;2022-07-29T06:36:12;18.30;80.50
54006;DHT22;39919;38.160;-122.260;2022-07-29T06:38:42;18.20;80.00
54006;DHT22;39919;38.160;-122.260;2022-07-29T06:41:09;18.20;79.90
54006;DHT22;39919;38.160;-122.260;2022-07-29T06:43:40;18.10;79.90
54006;DHT22;39919;38.160;-122.260;2022-07-29T06:46:14;18.20;79.80
54006;DHT22;39919;38.160;-122.260;2022-07-29T06:48:46;18.10;79.70
54006;DHT22;39919;38.160;-122.260;2022-07-29T06:51:16;18.10;79.70
54006;DHT22;39919;38.160;-122.260;2022-07-29T06:53:45;18.10;79.70
54006;DHT22;39919;38.160;-122.260;2022-07-29T06:56:14;18.10;79.70
54006;DHT22;39919;38.160;-122.260;2022-07-29T06:58:43;18.10;79.80
54006;DHT22;39919;38.160;-122.260;2022-07-29T07:01:17;18.10;79.70
54006;DHT22;39919;38.160;-122.260;2022-07-29T07:03:46;18.00;79.70
54006;DHT22;39919;38.160;-122.260;2022-07-29T07:06:16;18.00;79.90
54006;DHT22;39919;38.160;-122.260;2022-07-29T07:08:45;18.00;79.90
54006;DHT22;39919;38.160;-122.260;2022-07-29T07:11:14;18.00;80.10
54006;DHT22;39919;38.160;-122.260;2022-07-29T07:13:43;18.00;80.00
54006;DHT22;39919;38.160;-122.260;2022-07-29T07:16:15;18.00;80.20
54006;DHT22;39919;38.160;-122.260;2022-07-29T07:21:14;18.00;80.20
54006;DHT22;39919;38.160;-122.260;2022-07-29T07:23:50;18.00;80.20
54006;DHT22;39919;38.160;-122.260;2022-07-29T07:26:19;17.90;80.50
54006;DHT22;39919;38.160;-122.260;2022-07-29T07:28:53;16.20;91.70
54006;DHT22;39919;38.160;-122.260;2022-07-29T07:31:22;18.00;91.60
54006;DHT22;39919;38.160;-122.260;2022-07-29T07:33:51;18.00;91.00
54006;DHT22;39919;38.160;-122.260;2022-07-29T07:36:22;18.00;90.40
54006;DHT22;39919;38.160;-122.260;2022-07-29T07:38:51;17.90;90.20
54006;DHT22;39919;38.160;-122.260;2022-07-29T07:41:21;17.90;89.80
54006;DHT22;39919;38.160;-122.260;2022-07-29T07:43:50;17.90;89.20
54006;DHT22;39919;38.160;-122.260;2022-07-29T07:46:19;18.00;89.60
54006;DHT22;39919;38.160;-122.260;2022-07-29T07:48:49;17.90;89.60
54006;DHT22;39919;38.160;-122.260;2022-07-29T07:51:18;17.90;89.10
54006;DHT22;39919;38.160;-122.260;2022-07-29T07:56:25;17.90;88.80
54006;DHT22;39919;38.160;-122.260;2022-07-29T07:58:58;17.90;88.70
54006;DHT22;39919;38.160;-122.260;2022-07-29T08:01:29;17.90;88.80
54006;DHT22;39919;38.160;-122.260;2022-07-29T08:03:58;17.90;88.70
54006;DHT22;39919;38.160;-122.260;2022-07-29T08:06:27;17.90;89.00
54006;DHT22;39919;38.160;-122.260;2022-07-29T08:08:56;17.90;88.60
54006;DHT22;39919;38.160;-122.260;2022-07-29T08:11:27;17.90;86.20
54006;DHT22;39919;38.160;-122.260;2022-07-29T08:13:57;17.90;87.00
54006;DHT22;39919;38.160;-122.260;2022-07-29T08:16:43;17.80;88.90
54006;DHT22;39919;38.160;-122.260;2022-07-29T08:19:12;17.90;88.80
54006;DHT22;39919;38.160;-122.260;2022-07-29T08:21:42;17.90;88.80
54006;DHT22;39919;38.160;-122.260;2022-07-29T08:24:11;17.80;88.90
54006;DHT22;39919;38.160;-122.260;2022-07-29T08:26:56;17.80;89.40
54006;DHT22;39919;38.160;-122.260;2022-07-29T08:29:26;17.80;90.10
54006;DHT22;39919;38.160;-122.260;2022-07-29T08:31:56;17.80;89.60
54006;DHT22;39919;38.160;-122.260;2022-07-29T08:34:26;17.80;89.80
54006;DHT22;39919;38.160;-122.260;2022-07-29T08:36:55;17.80;89.90
54006;DHT22;39919;38.160;-122.260;2022-07-29T08:39:24;17.80;90.10
54006;DHT22;39919;38.160;-122.260;2022-07-29T08:41:53;17.80;90.30
54006;DHT22;39919;38.160;-122.260;2022-07-29T08:44:23;17.90;90.30
54006;DHT22;39919;38.160;-122.260;2022-07-29T08:46:55;17.80;90.00
54006;DHT22;39919;38.160;-122.260;2022-07-29T08:49:26;17.80;89.90
54006;DHT22;39919;38.160;-122.260;2022-07-29T08:51:56;17.70;89.80
54006;DHT22;39919;38.160;-122.260;2022-07-29T08:54:26;17.70;89.60
54006;DHT22;39919;38.160;-122.260;2022-07-29T08:56:56;17.80;89.40
54006;DHT22;39919;38.160;-122.260;2022-07-29T08:59:27;17.70;89.10
54006;DHT22;39919;38.160;-122.260;2022-07-29T09:01:58;17.80;88.80
54006;DHT22;39919;38.160;-122.260;2022-07-29T09:04:30;17.80;88.70
54006;DHT22;39919;38.160;-122.260;2022-07-29T09:07:04;17.70;88.40
54006;DHT22;39919;38.160;-122.260;2022-07-29T09:09:34;17.80;88.40
54006;DHT22;39919;38.160;-122.260;2022-07-29T09:12:06;17.80;88.70
54006;DHT22;39919;38.160;-122.260;2022-07-29T09:14:38;17.80;88.40
54006;DHT22;39919;38.160;-122.260;2022-07-29T09:17:09;17.70;88.60
54006;DHT22;39919;38.160;-122.260;2022-07-29T09:19:38;17.80;88.50
54006;DHT22;39919;38.160;-122.260;2022-07-29T09:22:07;17.80;88.40
54006;DHT22;39919;38.160;-122.260;2022-07-29T09:24:43;17.80;88.30
54006;DHT22;39919;38.160;-122.260;2022-07-29T09:27:24;17.80;88.10
54006;DHT22;39919;38.160;-122.260;2022-07-29T09:29:59;17.80;87.90
54006;DHT22;39919;38.160;-122.260;2022-07-29T09:32:30;17.70;87.70
54006;DHT22;39919;38.160;-122.260;2022-07-29T09:35:19;17.80;87.80
54006;DHT22;39919;38.160;-122.260;2022-07-29T09:37:48;17.80;87.60
54006;DHT22;39919;38.160;-122.260;2022-07-29T09:40:19;17.80;87.90
54006;DHT22;39919;38.160;-122.260;2022-07-29T09:42:49;17.80;87.40
54006;DHT22;39919;38.160;-122.260;2022-07-29T09:45:28;17.90;88.10
54006;DHT22;39919;38.160;-122.260;2022-07-29T09:48:14;17.80;87.50
54006;DHT22;39919;38.160;-122.260;2022-07-29T09:50:45;17.80;87.10
54006;DHT22;39919;38.160;-122.260;2022-07-29T09:53:31;17.80;87.00
54006;DHT22;39919;38.160;-122.260;2022-07-29T09:56:01;17.80;87.00
54006;DHT22;39919;38.160;-122.260;2022-07-29T09:58:31;17.90;87.20
54006;DHT22;39919;38.160;-122.260;2022-07-29T10:01:02;17.80;87.00
54006;DHT22;39919;38.160;-122.260;2022-07-29T10:03:51;17.80;87.00
54006;DHT22;39919;38.160;-122.260;2022-07-29T10:06:20;17.80;87.00
54006;DHT22;39919;38.160;-122.260;2022-07-29T10:08:49;17.80;87.20
54006;DHT22;39919;38.160;-122.260;2022-07-29T10:11:20;17.70;86.90
54006;DHT22;39919;38.160;-122.260;2022-07-29T10:13:49;17.80;87.20
54006;DHT22;39919;38.160;-122.260;2022-07-29T10:18:46;17.70;87.30
54006;DHT22;39919;38.160;-122.260;2022-07-29T10:21:15;17.80;87.40
54006;DHT22;39919;38.160;-122.260;2022-07-29T10:23:44;17.80;87.40
54006;DHT22;39919;38.160;-122.260;2022-07-29T10:26:14;17.80;87.20
54006;DHT22;39919;38.160;-122.260;2022-07-29T10:28:44;17.70;87.00
54006;DHT22;39919;38.160;-122.260;2022-07-29T10:31:19;17.80;86.90
54006;DHT22;39919;38.160;-122.260;2022-07-29T10:34:00;17.70;86.80
54006;DHT22;39919;38.160;-122.260;2022-07-29T10:36:45;17.70;86.60
54006;DHT22;39919;38.160;-122.260;2022-07-29T10:39:30;17.70;86.40
54006;DHT22;39919;38.160;-122.260;2022-07-29T10:42:09;17.70;86.50
54006;DHT22;39919;38.160;-122.260;2022-07-29T10:44:41;17.70;86.60
54006;DHT22;39919;38.160;-122.260;2022-07-29T10:47:20;17.70;86.90
54006;DHT22;39919;38.160;-122.260;2022-07-29T10:50:02;17.70;87.20
54006;DHT22;39919;38.160;-122.260;2022-07-29T10:53:01;17.70;87.20
54006;DHT22;39919;38.160;-122.260;2022-07-29T10:55:34;17.60;87.20
54006;DHT22;39919;38.160;-122.260;2022-07-29T10:58:16;17.60;87.60
54006;DHT22;39919;38.160;-122.260;2022-07-29T11:00:47;17.70;87.90
54006;DHT22;39919;38.160;-122.260;2022-07-29T11:03:43;17.70;88.20
54006;DHT22;39919;38.160;-122.260;2022-07-29T11:06:15;17.70;88.50
54006;DHT22;39919;38.160;-122.260;2022-07-29T11:08:44;17.70;88.60
54006;DHT22;39919;38.160;-122.260;2022-07-29T11:11:37;17.60;88.30
54006;DHT22;39919;38.160;-122.260;2022-07-29T11:14:07;17.70;88.40
54006;DHT22;39919;38.160;-122.260;2022-07-29T11:17:00;17.60;88.30
54006;DHT22;39919;38.160;-122.260;2022-07-29T11:19:34;17.60;88.20
54006;DHT22;39919;38.160;-122.260;2022-07-29T11:22:08;17.70;88.20
54006;DHT22;39919;38.160;-122.260;2022-07-29T11:24:38;17.70;88.40
54006;DHT22;39919;38.160;-122.260;2022-07-29T11:27:14;17.60;89.00
54006;DHT22;39919;38.160;-122.260;2022-07-29T11:29:51;17.70;88.40
54006;DHT22;39919;38.160;-122.260;2022-07-29T11:32:22;17.70;88.40
54006;DHT22;39919;38.160;-122.260;2022-07-29T11:35:13;17.70;88.20
54006;DHT22;39919;38.160;-122.260;2022-07-29T11:37:44;17.60;87.70
54006;DHT22;39919;38.160;-122.260;2022-07-29T11:40:17;17.60;87.60
54006;DHT22;39919;38.160;-122.260;2022-07-29T11:42:50;17.70;87.90
54006;DHT22;39919;38.160;-122.260;2022-07-29T11:45:27;17.70;87.90
54006;DHT22;39919;38.160;-122.260;2022-07-29T11:48:16;17.70;87.70
54006;DHT22;39919;38.160;-122.260;2022-07-29T11:50:46;17.60;87.70
54006;DHT22;39919;38.160;-122.260;2022-07-29T11:53:18;17.60;88.60
54006;DHT22;39919;38.160;-122.260;2022-07-29T11:55:55;17.60;89.20
54006;DHT22;39919;38.160;-122.260;2022-07-29T11:58:24;17.60;89.00
54006;DHT22;39919;38.160;-122.260;2022-07-29T12:00:54;17.50;89.40
54006;DHT22;39919;38.160;-122.260;2022-07-29T12:03:25;17.60;90.00
54006;DHT22;39919;38.160;-122.260;2022-07-29T12:05:55;17.60;90.50
54006;DHT22;39919;38.160;-122.260;2022-07-29T12:08:26;17.50;90.20
54006;DHT22;39919;38.160;-122.260;2022-07-29T12:10:55;17.60;90.40
54006;DHT22;39919;38.160;-122.260;2022-07-29T12:13:24;17.50;90.30
54006;DHT22;39919;38.160;-122.260;2022-07-29T12:15:54;17.50;90.00
54006;DHT22;39919;38.160;-122.260;2022-07-29T12:18:27;17.50;89.80
54006;DHT22;39919;38.160;-122.260;2022-07-29T12:21:00;17.50;90.10
54006;DHT22;39919;38.160;-122.260;2022-07-29T12:23:32;17.50;90.40
54006;DHT22;39919;38.160;-122.260;2022-07-29T12:26:03;17.50;90.40
54006;DHT22;39919;38.160;-122.260;2022-07-29T12:28:37;17.50;90.80
54006;DHT22;39919;38.160;-122.260;2022-07-29T12:31:12;17.50;91.00
54006;DHT22;39919;38.160;-122.260;2022-07-29T12:33:41;17.40;90.40
54006;DHT22;39919;38.160;-122.260;2022-07-29T12:36:11;17.40;90.20
54006;DHT22;39919;38.160;-122.260;2022-07-29T12:38:44;17.40;90.20
54006;DHT22;39919;38.160;-122.260;2022-07-29T12:41:13;17.50;90.00
54006;DHT22;39919;38.160;-122.260;2022-07-29T12:43:53;17.50;89.80
54006;DHT22;39919;38.160;-122.260;2022-07-29T12:46:22;17.50;89.30
54006;DHT22;39919;38.160;-122.260;2022-07-29T12:48:53;17.40;88.80
54006;DHT22;39919;38.160;-122.260;2022-07-29T12:51:29;17.40;88.60
54006;DHT22;39919;38.160;-122.260;2022-07-29T12:54:09;17.40;88.90
54006;DHT22;39919;38.160;-122.260;2022-07-29T12:56:40;17.50;89.20
54006;DHT22;39919;38.160;-122.260;2022-07-29T12:59:14;17.40;89.30
54006;DHT22;39919;38.160;-122.260;2022-07-29T13:01:44;17.40;89.00
54006;DHT22;39919;38.160;-122.260;2022-07-29T13:04:24;17.40;89.10
54006;DHT22;39919;38.160;-122.260;2022-07-29T13:06:59;17.40;88.90
54006;DHT22;39919;38.160;-122.260;2022-07-29T13:09:39;17.40;88.70
54006;DHT22;39919;38.160;-122.260;2022-07-29T13:12:12;17.40;88.60
54006;DHT22;39919;38.160;-122.260;2022-07-29T13:14:42;17.50;88.50
54006;DHT22;39919;38.160;-122.260;2022-07-29T13:19:41;17.40;83.70
54006;DHT22;39919;38.160;-122.260;2022-07-29T13:22:12;17.40;83.70
54006;DHT22;39919;38.160;-122.260;2022-07-29T13:24:51;17.40;84.00
54006;DHT22;39919;38.160;-122.260;2022-07-29T13:27:22;17.40;83.90
54006;DHT22;39919;38.160;-122.260;2022-07-29T13:29:55;17.40;83.90
54006;DHT22;39919;38.160;-122.260;2022-07-29T13:32:25;17.40;83.90
54006;DHT22;39919;38.160;-122.260;2022-07-29T13:34:59;17.40;83.90
54006;DHT22;39919;38.160;-122.260;2022-07-29T13:37:32;17.50;83.90
54006;DHT22;39919;38.160;-122.260;2022-07-29T13:40:04;17.50;84.10
54006;DHT22;39919;38.160;-122.260;2022-07-29T13:42:34;17.50;84.10
54006;DHT22;39919;38.160;-122.260;2022-07-29T13:45:06;17.50;84.00
54006;DHT22;39919;38.160;-122.260;2022-07-29T13:47:36;17.50;84.00
54006;DHT22;39919;38.160;-122.260;2022-07-29T13:50:06;17.50;83.90
54006;DHT22;39919;38.160;-122.260;2022-07-29T13:52:37;17.50;83.80
54006;DHT22;39919;38.160;-122.260;2022-07-29T13:55:09;17.50;83.70
54006;DHT22;39919;38.160;-122.260;2022-07-29T13:57:38;17.60;83.70
54006;DHT22;39919;38.160;-122.260;2022-07-29T14:00:08;17.60;83.80
54006;DHT22;39919;38.160;-122.260;2022-07-29T14:02:38;17.60;83.80
54006;DHT22;39919;38.160;-122.260;2022-07-29T14:05:07;17.60;83.70
54006;DHT22;39919;38.160;-122.260;2022-07-29T14:07:37;17.60;83.70
54006;DHT22;39919;38.160;-122.260;2022-07-29T14:10:10;17.60;84.10
54006;DHT22;39919;38.160;-122.260;2022-07-29T14:12:40;17.70;84.60
54006;DHT22;39919;38.160;-122.260;2022-07-29T14:15:19;17.70;85.40
54006;DHT22;39919;38.160;-122.260;2022-07-29T14:17:51;17.70;85.90
54006;DHT22;39919;38.160;-122.260;2022-07-29T14:20:22;17.70;86.40
54006;DHT22;39919;38.160;-122.260;2022-07-29T14:22:57;17.70;86.30
54006;DHT22;39919;38.160;-122.260;2022-07-29T14:25:32;17.80;86.30
54006;DHT22;39919;38.160;-122.260;2022-07-29T14:28:13;17.80;86.00
54006;DHT22;39919;38.160;-122.260;2022-07-29T14:30:42;17.80;85.50
54006;DHT22;39919;38.160;-122.260;2022-07-29T14:35:45;17.90;84.90
54006;DHT22;39919;38.160;-122.260;2022-07-29T14:38:17;17.90;84.70
54006;DHT22;39919;38.160;-122.260;2022-07-29T14:40:48;18.00;84.50
54006;DHT22;39919;38.160;-122.260;2022-07-29T14:43:17;18.00;84.20
54006;DHT22;39919;38.160;-122.260;2022-07-29T14:45:49;18.00;84.00
54006;DHT22;39919;38.160;-122.260;2022-07-29T14:48:20;18.10;83.80
54006;DHT22;39919;38.160;-122.260;2022-07-29T14:50:49;18.10;83.60
54006;DHT22;39919;38.160;-122.260;2022-07-29T14:53:21;18.10;83.30
54006;DHT22;39919;38.160;-122.260;2022-07-29T14:55:52;18.20;83.10
54006;DHT22;39919;38.160;-122.260;2022-07-29T14:58:29;18.20;82.90
54006;DHT22;39919;38.160;-122.260;2022-07-29T15:00:58;18.20;82.60
54006;DHT22;39919;38.160;-122.260;2022-07-29T15:03:27;18.30;82.50
54006;DHT22;39919;38.160;-122.260;2022-07-29T15:06:00;18.30;82.20
54006;DHT22;39919;38.160;-122.260;2022-07-29T15:08:31;18.30;82.00
54006;DHT22;39919;38.160;-122.260;2022-07-29T15:11:02;18.40;81.90
54006;DHT22;39919;38.160;-122.260;2022-07-29T15:16:04;18.40;82.50
54006;DHT22;39919;38.160;-122.260;2022-07-29T15:18:36;18.40;82.60
54006;DHT22;39919;38.160;-122.260;2022-07-29T15:21:08;18.50;82.60
54006;DHT22;39919;38.160;-122.260;2022-07-29T15:23:40;18.50;82.80
54006;DHT22;39919;38.160;-122.260;2022-07-29T15:26:11;18.50;82.70
54006;DHT22;39919;38.160;-122.260;2022-07-29T15:28:40;18.50;82.70
54006;DHT22;39919;38.160;-122.260;2022-07-29T15:31:09;18.50;82.60
54006;DHT22;39919;38.160;-122.260;2022-07-29T15:33:38;18.50;82.70
54006;DHT22;39919;38.160;-122.260;2022-07-29T15:36:10;18.60;82.60
54006;DHT22;39919;38.160;-122.260;2022-07-29T15:38:39;18.60;82.50
54006;DHT22;39919;38.160;-122.260;2022-07-29T15:41:14;18.50;82.50
54006;DHT22;39919;38.160;-122.260;2022-07-29T15:43:47;18.50;82.50
54006;DHT22;39919;38.160;-122.260;2022-07-29T15:46:18;18.60;82.70
54006;DHT22;39919;38.160;-122.260;2022-07-29T15:49:05;18.50;82.60
54006;DHT22;39919;38.160;-122.260;2022-07-29T15:51:36;18.60;82.50
54006;DHT22;39919;38.160;-122.260;2022-07-29T15:54:08;18.70;82.40
54006;DHT22;39919;38.160;-122.260;2022-07-29T15:56:41;18.70;82.40
54006;DHT22;39919;38.160;-122.260;2022-07-29T15:59:16;18.70;82.10
54006;DHT22;39919;38.160;-122.260;2022-07-29T16:01:46;18.80;81.90
54006;DHT22;39919;38.160;-122.260;2022-07-29T16:04:15;18.90;81.60
54006;DHT22;39919;38.160;-122.260;2022-07-29T16:06:52;19.00;81.40
54006;DHT22;39919;38.160;-122.260;2022-07-29T16:15:37;19.30;80.20
54006;DHT22;39919;38.160;-122.260;2022-07-29T16:18:19;19.40;80.20
54006;DHT22;39919;38.160;-122.260;2022-07-29T16:20:49;19.50;79.70
54006;DHT22;39919;38.160;-122.260;2022-07-29T16:23:18;19.60;79.20
54006;DHT22;39919;38.160;-122.260;2022-07-29T16:25:52;19.70;79.00
54006;DHT22;39919;38.160;-122.260;2022-07-29T16:28:23;19.80;78.80
54006;DHT22;39919;38.160;-122.260;2022-07-29T16:30:57;19.90;78.80
54006;DHT22;39919;38.160;-122.260;2022-07-29T16:33:26;20.10;78.40
54006;DHT22;39919;38.160;-122.260;2022-07-29T16:35:55;20.20;77.60
54006;DHT22;39919;38.160;-122.260;2022-07-29T16:38:24;20.30;77.60
54006;DHT22;39919;38.160;-122.260;2022-07-29T16:40:56;20.50;76.60